< < Back
Terminal Aerodrome Forecast


Current Version              Previous Versions:   1  2  3  4  5  6  7  8  9  

Terminal Aerodrome Forecast

223
FTUS42 KJAX 232320
TAFGNV
TAF
KGNV 232320Z 2400/2424 13010KT P6SM VCSH FEW060 SCT250
      TEMPO 2400/2402 VRB15G30KT 4SM TSRA BKN030CB
     FM240300 VRB03KT P6SM SCT060 SCT250
     FM240800 00000KT P6SM SCT150 BKN250
     FM241400 VRB05KT P6SM FEW030 SCT250
     FM241900 18008KT P6SM VCTS SCT050CB SCT250=

Latest METAR

453
SAUS70 KWBC 240200 RRL
MTRGNV
METAR KGNV 240153Z 20005KT 10SM CLR 27/21 A3002 RMK AO2 LTG DSNT SW-NW
SLP162 T02670206


USA.gov is the U.S. government's official web portal to all federal, state and local government web resources and services.